createdAt,value
2017-08-15T00:01:24.061Z,66.27
2017-08-15T00:02:24.101Z,66.27
2017-08-15T00:04:18.581Z,66.17
2017-08-15T00:05:18.605Z,66.11
2017-08-15T00:07:13.061Z,66.55
2017-08-15T00:08:13.100Z,67.13
2017-08-15T00:10:07.582Z,67.33
2017-08-15T00:11:07.598Z,67.13
2017-08-15T00:13:02.062Z,67.52
2017-08-15T00:14:02.109Z,67.33
2017-08-15T00:15:56.581Z,67.52
2017-08-15T00:16:56.606Z,67.42
2017-08-15T00:18:51.079Z,67.33
2017-08-15T00:19:51.093Z,67.33
2017-08-15T00:21:45.566Z,67.90
2017-08-15T00:22:45.622Z,68.00
2017-08-15T00:24:40.078Z,68.00
2017-08-15T00:25:40.094Z,68.19
2017-08-15T00:27:34.558Z,68.29
2017-08-15T00:28:34.598Z,68.29
2017-08-15T00:30:29.102Z,68.10
2017-08-15T00:31:29.113Z,68.38
2017-08-15T00:33:23.582Z,68.19
2017-08-15T00:34:23.622Z,68.38
2017-08-15T00:36:18.231Z,68.19
2017-08-15T00:37:18.214Z,68.16
2017-08-15T00:39:12.671Z,69.12
2017-08-15T00:40:12.694Z,68.19
2017-08-15T00:42:07.191Z,68.48
2017-08-15T00:43:07.191Z,67.90
2017-08-15T00:45:01.668Z,68.58
2017-08-15T00:46:01.695Z,68.77
2017-08-15T00:47:56.175Z,69.15
2017-08-15T00:48:56.199Z,68.87
2017-08-15T00:50:49.719Z,69.06
2017-08-15T00:51:49.759Z,68.77
2017-08-15T00:53:44.247Z,68.74
2017-08-15T00:54:44.271Z,68.77
2017-08-15T00:56:38.735Z,69.31
2017-08-15T00:57:38.767Z,69.64
2017-08-15T00:59:33.223Z,69.79
2017-08-15T01:00:33.263Z,69.35
2017-08-15T01:02:27.760Z,69.79
2017-08-15T01:03:27.768Z,69.79
2017-08-15T01:05:22.223Z,69.70
2017-08-15T01:06:22.256Z,69.89
2017-08-15T01:08:16.742Z,69.79
2017-08-15T01:09:16.759Z,69.70
2017-08-15T01:11:11.248Z,70.09
2017-08-15T01:12:11.255Z,69.89
2017-08-15T01:14:05.715Z,69.89
2017-08-15T01:15:05.763Z,70.56
2017-08-15T01:17:01.864Z,70.47
2017-08-15T01:18:01.869Z,70.37
2017-08-15T01:19:54.824Z,70.56
2017-08-15T01:20:54.888Z,70.37
2017-08-15T01:22:49.344Z,70.66
2017-08-15T01:23:49.360Z,70.86
2017-08-15T01:25:44.449Z,70.95
2017-08-15T01:26:44.416Z,70.76
2017-08-15T01:28:37.912Z,70.95
2017-08-15T01:29:37.929Z,70.66
2017-08-15T01:31:32.369Z,71.14
2017-08-15T01:32:32.685Z,70.76
2017-08-15T01:34:26.896Z,70.86
2017-08-15T01:35:26.929Z,70.76
2017-08-15T01:37:21.433Z,70.56
2017-08-15T01:38:20.553Z,71.24
2017-08-15T01:40:14.025Z,71.04
2017-08-15T01:41:14.033Z,71.24
2017-08-15T01:43:08.497Z,71.14
2017-08-15T01:44:08.537Z,71.40
2017-08-15T01:46:03.009Z,71.49
2017-08-15T01:47:03.033Z,71.97
2017-08-15T01:48:56.593Z,71.20
2017-08-15T01:49:56.641Z,71.40
2017-08-15T01:51:50.106Z,71.59
2017-08-15T01:52:50.105Z,71.40
2017-08-15T01:54:44.585Z,71.69
2017-08-15T01:55:44.593Z,71.40
2017-08-15T01:57:39.209Z,72.17
2017-08-15T01:58:39.210Z,71.78
2017-08-15T02:00:33.684Z,72.17
2017-08-15T02:01:33.673Z,71.97
2017-08-15T02:03:27.138Z,72.17
2017-08-15T02:04:27.187Z,72.17
2017-08-15T02:06:21.674Z,71.88
2017-08-15T02:07:21.674Z,72.07
2017-08-15T02:09:16.130Z,72.36
2017-08-15T02:10:16.170Z,72.45
2017-08-15T02:12:11.267Z,71.97
2017-08-15T02:13:12.182Z,72.07
2017-08-15T02:15:05.731Z,72.17
2017-08-15T02:16:05.771Z,71.97
2017-08-15T02:18:00.259Z,72.17
2017-08-15T02:19:00.275Z,71.97
2017-08-15T02:20:54.715Z,72.74
2017-08-15T02:21:54.770Z,72.74
2017-08-15T02:23:49.266Z,73.03
2017-08-15T02:24:49.258Z,73.03
2017-08-15T02:26:42.731Z,73.61
2017-08-15T02:27:42.755Z,72.45
2017-08-15T02:29:37.259Z,73.42
2017-08-15T02:30:37.284Z,73.51
2017-08-15T02:32:31.715Z,73.22
2017-08-15T02:33:31.747Z,73.42
2017-08-15T02:35:26.230Z,73.22
2017-08-15T02:36:26.251Z,73.13
2017-08-15T02:38:20.771Z,73.61
2017-08-15T02:39:20.835Z,73.32
2017-08-15T02:41:14.300Z,73.90
2017-08-15T02:42:14.315Z,73.90
2017-08-15T02:44:08.772Z,74.29
2017-08-15T02:45:08.812Z,73.71
2017-08-15T02:47:04.868Z,73.80
2017-08-15T02:48:04.892Z,73.80
2017-08-15T02:49:59.349Z,74.29
2017-08-15T02:50:59.372Z,73.80
2017-08-15T02:52:53.868Z,73.80
2017-08-15T02:53:53.869Z,74.29
2017-08-15T02:55:48.316Z,74.38
2017-08-15T02:56:48.358Z,74.63
2017-08-15T02:58:42.844Z,74.44
2017-08-15T02:59:42.876Z,75.21
2017-08-15T03:01:36.340Z,75.31
2017-08-15T03:02:36.365Z,75.21
2017-08-15T03:04:30.860Z,74.76
2017-08-15T03:05:30.852Z,74.67
2017-08-15T03:07:25.909Z,75.24
2017-08-15T03:08:25.949Z,75.34
2017-08-15T03:10:20.452Z,74.86
2017-08-15T03:11:20.460Z,75.21
2017-08-15T03:13:14.957Z,74.96
2017-08-15T03:14:14.981Z,75.15
2017-08-15T03:16:09.444Z,75.31
2017-08-15T03:17:09.469Z,75.40
2017-08-15T03:19:03.981Z,75.69
2017-08-15T03:20:03.965Z,75.49
2017-08-15T03:21:58.452Z,75.31
2017-08-15T03:22:58.469Z,75.40
2017-08-15T03:24:52.917Z,75.11
2017-08-15T03:25:52.957Z,74.82
2017-08-15T03:27:47.438Z,75.40
2017-08-15T03:28:47.469Z,75.31
2017-08-15T03:30:41.910Z,76.17
2017-08-15T03:31:41.941Z,76.17
2017-08-15T03:33:36.446Z,76.07
2017-08-15T03:34:36.462Z,76.36
2017-08-15T03:36:31.167Z,76.17
2017-08-15T03:37:30.958Z,76.42
2017-08-15T03:39:25.430Z,76.07
2017-08-15T03:40:25.446Z,76.04
2017-08-15T03:42:19.902Z,76.04
2017-08-15T03:43:19.934Z,76.07
2017-08-15T03:45:14.438Z,76.04
2017-08-15T03:46:14.438Z,75.88
2017-08-15T03:48:08.902Z,75.79
2017-08-15T03:49:08.942Z,76.94
2017-08-15T03:51:03.430Z,76.81
2017-08-15T03:52:03.446Z,77.29
2017-08-15T03:53:56.942Z,77.38
2017-08-15T03:54:56.966Z,77.29
2017-08-15T03:56:50.478Z,77.38
2017-08-15T03:57:50.462Z,77.48
2017-08-15T03:59:44.919Z,77.29
2017-08-15T04:00:44.943Z,77.38
2017-08-15T04:02:39.430Z,77.48
2017-08-15T04:03:39.447Z,77.19
2017-08-15T04:05:32.903Z,77.48
2017-08-15T04:06:32.943Z,77.86
2017-08-15T04:08:26.503Z,77.67
2017-08-15T04:09:26.527Z,77.96
2017-08-15T04:11:20.959Z,77.86
2017-08-15T04:12:21.015Z,78.06
2017-08-15T04:14:14.575Z,77.38
2017-08-15T04:15:14.591Z,77.38
2017-08-15T04:17:09.023Z,77.67
2017-08-15T04:18:09.063Z,77.67
2017-08-15T04:20:03.567Z,78.06
2017-08-15T04:21:03.568Z,78.06
2017-08-15T04:22:58.024Z,77.86
2017-08-15T04:23:58.063Z,78.06
2017-08-15T04:25:53.008Z,78.06
2017-08-15T04:26:52.592Z,77.67
2017-08-15T04:28:47.024Z,78.53
2017-08-15T04:29:47.055Z,78.06
2017-08-15T04:31:41.528Z,78.92
2017-08-15T04:32:41.543Z,79.11
2017-08-15T04:34:35.104Z,78.73
2017-08-15T04:35:35.153Z,78.34
2017-08-15T04:37:28.584Z,78.25
2017-08-15T04:38:28.641Z,78.53
2017-08-15T04:40:23.287Z,78.63
2017-08-15T04:41:23.160Z,78.44
2017-08-15T04:43:17.600Z,78.25
2017-08-15T04:44:17.633Z,78.34
2017-08-15T04:46:11.208Z,78.44
2017-08-15T04:47:11.216Z,78.44
2017-08-15T04:49:05.745Z,78.34
2017-08-15T04:50:05.788Z,77.86
2017-08-15T04:51:59.400Z,77.67
2017-08-15T04:52:59.424Z,78.53
2017-08-15T04:54:52.376Z,78.44
2017-08-15T04:55:52.457Z,78.34
2017-08-15T04:57:46.920Z,78.53
2017-08-15T04:58:46.936Z,78.53
2017-08-15T05:00:41.448Z,78.25
2017-08-15T05:01:41.416Z,77.96
2017-08-15T05:03:35.896Z,78.06
2017-08-15T05:04:35.945Z,77.67
2017-08-15T05:06:30.376Z,78.53
2017-08-15T05:07:30.408Z,78.34
2017-08-15T05:09:25.312Z,79.21
2017-08-15T05:10:25.281Z,78.63
2017-08-15T05:12:20.753Z,78.34
2017-08-15T05:13:20.776Z,78.34
2017-08-15T05:15:15.233Z,78.83
2017-08-15T05:16:15.274Z,78.06
2017-08-15T05:18:09.755Z,78.53
2017-08-15T05:19:09.772Z,78.73
2017-08-15T05:21:04.307Z,78.63
2017-08-15T05:22:04.276Z,78.15
2017-08-15T05:23:58.756Z,78.73
2017-08-15T05:24:58.829Z,78.44
2017-08-15T05:26:53.236Z,78.73
2017-08-15T05:27:53.276Z,78.83
2017-08-15T05:29:47.751Z,78.34
2017-08-15T05:30:47.764Z,78.53
2017-08-15T05:32:42.244Z,78.44
2017-08-15T05:33:42.260Z,78.83
2017-08-15T05:35:36.741Z,78.73
2017-08-15T05:36:36.765Z,78.19
2017-08-15T05:38:31.213Z,78.83
2017-08-15T05:39:31.253Z,78.96
2017-08-15T05:41:25.829Z,78.83
2017-08-15T05:42:25.757Z,78.73
2017-08-15T05:44:20.773Z,78.58
2017-08-15T05:45:20.997Z,78.19
2017-08-15T05:47:14.526Z,77.71
2017-08-15T05:48:14.352Z,77.71
2017-08-15T05:50:08.769Z,78.19
2017-08-15T05:51:09.066Z,77.23
2017-08-15T05:53:03.304Z,77.90
2017-08-15T05:54:03.312Z,77.90
2017-08-15T05:55:57.753Z,77.90
2017-08-15T05:56:57.793Z,78.00
2017-08-15T05:58:51.280Z,78.00
2017-08-15T05:59:51.296Z,77.65
2017-08-15T06:01:45.761Z,77.46
2017-08-15T06:02:45.792Z,77.56
2017-08-15T06:04:40.264Z,77.65
2017-08-15T06:05:40.291Z,77.36
2017-08-15T06:07:34.777Z,77.46
2017-08-15T06:08:34.808Z,77.46
2017-08-15T06:10:29.289Z,76.69
2017-08-15T06:11:29.297Z,76.11
2017-08-15T06:13:23.761Z,75.96
2017-08-15T06:14:23.785Z,75.76
2017-08-15T06:16:18.282Z,75.96
2017-08-15T06:17:18.297Z,75.57
2017-08-15T06:19:11.769Z,75.57
2017-08-15T06:20:12.009Z,75.96
2017-08-15T06:22:06.257Z,75.86
2017-08-15T06:23:06.282Z,75.71
2017-08-15T06:25:00.762Z,75.28
2017-08-15T06:26:00.778Z,74.80
2017-08-15T06:27:55.273Z,74.61
2017-08-15T06:28:55.298Z,74.74
2017-08-15T06:30:49.753Z,74.74
2017-08-15T06:31:49.794Z,75.23
2017-08-15T06:33:44.287Z,75.32
2017-08-15T06:34:44.292Z,75.03
2017-08-15T06:36:38.770Z,74.36
2017-08-15T06:37:38.794Z,74.36
2017-08-15T06:39:32.275Z,74.74
2017-08-15T06:40:32.289Z,73.68
2017-08-15T06:42:26.754Z,73.78
2017-08-15T06:43:26.803Z,74.26
2017-08-15T06:45:21.291Z,73.30
2017-08-15T06:46:21.291Z,73.62
2017-08-15T06:48:15.771Z,72.95
2017-08-15T06:49:15.819Z,72.85
2017-08-15T06:51:10.287Z,72.27
2017-08-15T06:52:10.307Z,72.69
2017-08-15T06:54:04.803Z,71.73
2017-08-15T06:55:04.803Z,72.02
2017-08-15T06:56:58.283Z,72.50
2017-08-15T06:57:58.307Z,72.12
2017-08-15T06:59:52.802Z,72.31
2017-08-15T07:00:52.811Z,71.44
2017-08-15T07:02:47.283Z,71.54
2017-08-15T07:03:47.315Z,71.28
2017-08-15T07:05:41.835Z,70.90
2017-08-15T07:06:41.819Z,71.09
2017-08-15T07:08:36.275Z,70.51
2017-08-15T07:09:36.316Z,68.19
2017-08-15T07:11:30.795Z,70.06
2017-08-15T07:12:30.819Z,69.29
2017-08-15T07:14:25.275Z,69.20
2017-08-15T07:15:25.324Z,69.29
2017-08-15T07:17:31.308Z,68.04
2017-08-15T07:18:31.341Z,67.94
2017-08-15T07:20:25.796Z,68.46
2017-08-15T07:21:25.828Z,67.59
2017-08-15T07:23:19.340Z,67.59
2017-08-15T07:24:19.348Z,67.40
2017-08-15T07:26:12.844Z,66.91
2017-08-15T07:27:12.844Z,66.63
2017-08-15T07:29:07.332Z,67.40
2017-08-15T07:30:07.372Z,66.53
2017-08-15T07:32:01.852Z,66.72
2017-08-15T07:33:01.876Z,66.91
2017-08-15T07:34:56.348Z,66.43
2017-08-15T07:35:56.420Z,67.43
2017-08-15T07:37:50.881Z,66.27
2017-08-15T07:38:50.877Z,65.20
2017-08-15T07:40:45.325Z,64.82
2017-08-15T07:41:45.389Z,65.11
2017-08-15T07:43:39.877Z,65.40
2017-08-15T07:44:39.933Z,64.92
2017-08-15T07:46:33.341Z,65.11
2017-08-15T07:47:33.389Z,64.82
2017-08-15T07:49:27.885Z,64.24
2017-08-15T07:50:27.885Z,64.34
2017-08-15T07:52:22.365Z,63.47
2017-08-15T07:53:22.478Z,63.89
2017-08-15T07:55:15.877Z,63.60
2017-08-15T07:56:15.909Z,63.40
2017-08-15T07:58:10.380Z,63.40
2017-08-15T07:59:10.405Z,62.82
2017-08-15T08:01:04.869Z,63.63
2017-08-15T08:02:04.909Z,62.56
2017-08-15T08:03:59.429Z,61.98
2017-08-15T08:04:59.421Z,61.98
2017-08-15T08:06:53.925Z,61.69
2017-08-15T08:07:53.929Z,61.05
2017-08-15T08:09:48.381Z,61.33
2017-08-15T08:10:48.429Z,60.85
2017-08-15T08:12:42.909Z,60.57
2017-08-15T08:13:42.941Z,60.50
2017-08-15T08:15:37.405Z,60.40
2017-08-15T08:16:37.453Z,60.21
2017-08-15T08:18:30.950Z,60.01
2017-08-15T08:19:30.965Z,60.21
2017-08-15T08:21:24.437Z,59.07
2017-08-15T08:22:24.550Z,57.62
2017-08-15T08:24:18.982Z,58.75
2017-08-15T08:25:18.990Z,59.27
2017-08-15T08:27:14.992Z,58.95
2017-08-15T08:28:15.038Z,59.05
2017-08-15T08:30:09.486Z,57.88
2017-08-15T08:31:09.526Z,58.85
2017-08-15T08:33:03.982Z,57.88
2017-08-15T08:34:04.022Z,58.04
2017-08-15T08:35:58.518Z,58.37
2017-08-15T08:36:58.526Z,59.01
2017-08-15T08:38:52.982Z,58.37
2017-08-15T08:39:53.032Z,59.23
2017-08-15T08:41:47.558Z,58.85
2017-08-15T08:42:47.535Z,59.43
2017-08-15T08:44:41.014Z,59.05
2017-08-15T08:45:41.055Z,59.43
2017-08-15T08:47:35.535Z,59.43
2017-08-15T08:48:35.551Z,58.95
2017-08-15T08:50:30.071Z,58.07
2017-08-15T08:51:30.062Z,58.37
2017-08-15T08:53:24.511Z,57.53
2017-08-15T08:54:24.575Z,58.20
2017-08-15T08:56:19.063Z,58.30
2017-08-15T08:57:19.078Z,58.59
2017-08-15T08:59:12.547Z,58.39
2017-08-15T09:00:12.591Z,57.62
2017-08-15T09:02:07.095Z,57.94
2017-08-15T09:03:07.113Z,58.23
2017-08-15T09:05:01.575Z,56.20
2017-08-15T09:06:01.616Z,57.84
2017-08-15T09:08:06.600Z,55.22
2017-08-15T09:09:06.623Z,56.03
2017-08-15T09:11:01.136Z,56.32
2017-08-15T09:12:01.144Z,56.51
2017-08-15T09:14:09.679Z,55.16
2017-08-15T09:15:09.727Z,57.48
2017-08-15T09:17:04.194Z,56.10
2017-08-15T09:18:04.216Z,55.42
2017-08-15T09:19:58.690Z,56.10
2017-08-15T09:20:58.776Z,56.00
2017-08-15T09:22:52.208Z,55.93
2017-08-15T09:23:52.241Z,56.51
2017-08-15T09:25:46.713Z,54.67
2017-08-15T09:26:46.753Z,54.58
2017-08-15T09:28:41.230Z,54.96
2017-08-15T09:29:41.296Z,54.77
2017-08-15T09:31:35.720Z,55.06
2017-08-15T09:32:35.762Z,54.86
2017-08-15T09:34:30.249Z,55.74
2017-08-15T09:35:30.272Z,54.96
2017-08-15T09:37:36.293Z,54.77
2017-08-15T09:38:36.313Z,55.28
2017-08-15T09:40:29.788Z,54.19
2017-08-15T09:41:29.809Z,54.38
2017-08-15T09:43:24.313Z,54.19
2017-08-15T09:44:24.321Z,53.70
2017-08-15T09:46:18.785Z,53.89
2017-08-15T09:47:18.833Z,54.19
2017-08-15T09:49:13.308Z,54.48
2017-08-15T09:50:13.345Z,55.06
2017-08-15T09:52:06.842Z,54.38
2017-08-15T09:53:06.865Z,54.77
2017-08-15T09:55:01.305Z,54.19
2017-08-15T09:56:01.362Z,54.09
2017-08-15T09:57:55.833Z,53.31
2017-08-15T09:58:55.866Z,53.02
2017-08-15T10:00:50.329Z,54.38
2017-08-15T10:01:50.378Z,54.09
2017-08-15T10:03:44.906Z,54.28
2017-08-15T10:04:44.906Z,53.99
2017-08-15T10:06:39.410Z,53.00
2017-08-15T10:07:39.426Z,53.97
2017-08-15T10:09:33.882Z,54.13
2017-08-15T10:10:33.946Z,54.84
2017-08-15T10:12:28.378Z,54.55
2017-08-15T10:13:28.418Z,53.87
2017-08-15T10:15:22.922Z,55.22
2017-08-15T10:16:22.938Z,54.84
2017-08-15T10:18:16.426Z,54.16
2017-08-15T10:19:16.442Z,54.55
2017-08-15T10:21:10.906Z,54.84
2017-08-15T10:22:10.946Z,55.44
2017-08-15T10:24:05.450Z,55.64
2017-08-15T10:25:05.459Z,55.83
2017-08-15T10:26:59.924Z,55.16
2017-08-15T10:28:00.963Z,54.48
2017-08-15T10:30:06.466Z,53.09
2017-08-15T10:31:06.443Z,54.45
2017-08-15T10:33:01.947Z,54.06
2017-08-15T10:34:01.971Z,54.71
2017-08-15T10:35:56.460Z,55.22
2017-08-15T10:36:56.444Z,55.32
2017-08-15T10:38:52.500Z,54.84
2017-08-15T10:39:52.483Z,55.04
2017-08-15T10:41:46.955Z,55.22
2017-08-15T10:42:46.995Z,55.13
2017-08-15T10:44:41.475Z,55.04
2017-08-15T10:45:41.507Z,53.97
2017-08-15T10:47:37.586Z,55.26
2017-08-15T10:48:37.596Z,54.77
2017-08-15T10:50:32.517Z,54.48
2017-08-15T10:51:32.564Z,54.19
2017-08-15T10:53:27.076Z,54.09
2017-08-15T10:54:27.077Z,53.15
2017-08-15T10:56:23.084Z,53.27
2017-08-15T10:57:23.220Z,51.59
2017-08-15T10:59:17.700Z,53.27
2017-08-15T11:00:17.701Z,53.97
2017-08-15T11:02:13.709Z,53.10
2017-08-15T11:03:24.983Z,52.42
2017-08-15T11:06:58.157Z,51.28
2017-08-15T11:07:58.085Z,50.99
2017-08-15T11:09:45.725Z,49.73
2017-08-15T11:10:45.772Z,48.58
2017-08-15T11:12:40.252Z,49.07
2017-08-15T11:13:40.502Z,48.97
2017-08-15T11:15:34.744Z,49.73
2017-08-15T11:16:35.174Z,48.85
2017-08-15T11:18:29.261Z,49.76
2017-08-15T11:19:29.605Z,48.80
2017-08-15T11:21:32.525Z,48.44
2017-08-15T11:22:33.755Z,47.86
2017-08-15T11:26:01.077Z,47.27
2017-08-15T11:26:59.614Z,47.83
2017-08-15T11:28:55.533Z,48.22
2017-08-15T11:29:55.629Z,49.00
2017-08-15T11:31:52.710Z,47.93
2017-08-15T11:34:07.677Z,46.47
2017-08-15T11:35:07.678Z,46.50
2017-08-15T11:37:02.542Z,45.39
2017-08-15T11:38:02.214Z,43.88
2017-08-15T11:40:07.278Z,42.52
2017-08-15T11:41:07.317Z,39.04
2017-08-15T11:43:02.142Z,36.90
2017-08-15T11:44:01.831Z,36.16
2017-08-15T11:45:57.078Z,33.64
2017-08-15T11:48:11.374Z,30.88
2017-08-15T11:49:11.383Z,30.21
2017-08-15T11:51:07.687Z,28.10
2017-08-15T11:52:07.742Z,26.86
2017-08-15T11:54:01.967Z,27.11
2017-08-15T11:55:01.999Z,23.68
2017-08-15T11:56:56.511Z,21.50
2017-08-15T11:57:56.535Z,21.11
2017-08-15T11:59:51.015Z,18.85
2017-08-15T12:00:51.119Z,19.35
2017-08-15T12:02:47.071Z,18.18
2017-08-15T12:03:47.183Z,17.90
2017-08-15T12:05:41.657Z,16.42
2017-08-15T12:06:41.640Z,17.44
2017-08-15T12:08:36.167Z,16.06
2017-08-15T12:09:36.184Z,15.97
2017-08-15T12:11:30.680Z,14.87
2017-08-15T12:12:30.695Z,14.18
2017-08-15T12:14:25.272Z,13.49
2017-08-15T12:15:25.239Z,13.27
2017-08-15T12:17:19.736Z,13.48
2017-08-15T12:18:19.920Z,13.39
2017-08-15T12:20:14.368Z,11.91
2017-08-15T12:21:14.304Z,12.10
2017-08-15T12:23:08.808Z,11.00
2017-08-15T12:24:08.848Z,12.92
2017-08-15T12:26:03.352Z,11.23
2017-08-15T12:27:03.384Z,9.42
2017-08-15T12:28:57.872Z,10.50
2017-08-15T12:29:58.224Z,10.81
2017-08-15T12:31:51.560Z,11.24
2017-08-15T12:32:51.592Z,9.03
2017-08-15T12:34:46.105Z,8.84
2017-08-15T12:35:46.137Z,9.55
2017-08-15T12:37:40.625Z,8.23
2017-08-15T12:38:40.678Z,7.73
2017-08-15T12:40:36.737Z,9.22
2017-08-15T12:41:36.713Z,8.31
2017-08-15T12:43:31.193Z,8.62
2017-08-15T12:44:31.255Z,8.83
2017-08-15T12:46:25.831Z,8.41
2017-08-15T12:47:25.847Z,9.09
2017-08-15T12:49:20.312Z,11.47
2017-08-15T12:50:20.320Z,10.47
2017-08-15T12:52:16.353Z,10.80
2017-08-15T12:53:16.376Z,10.49
2017-08-15T12:55:10.887Z,9.77
2017-08-15T12:56:10.912Z,12.04
2017-08-15T12:58:05.392Z,13.71
2017-08-15T12:59:05.456Z,13.13
2017-08-15T13:01:00.088Z,13.43
2017-08-15T13:02:00.024Z,13.53
2017-08-15T13:03:53.632Z,12.32
2017-08-15T13:04:53.536Z,12.71
2017-08-15T13:06:48.072Z,14.65
2017-08-15T13:07:48.096Z,14.75
2017-08-15T13:09:42.625Z,16.99
2017-08-15T13:10:42.680Z,16.78
2017-08-15T13:12:36.224Z,17.16
2017-08-15T13:13:36.169Z,19.81
2017-08-15T13:15:33.424Z,20.64
2017-08-15T13:17:45.745Z,22.39
2017-08-15T13:18:45.792Z,23.27
2017-08-15T13:20:40.289Z,23.95
2017-08-15T13:21:40.321Z,23.83
2017-08-15T13:23:34.865Z,24.80
2017-08-15T13:24:34.841Z,25.49
2017-08-15T13:26:29.369Z,25.49
2017-08-15T13:27:29.401Z,26.46
2017-08-15T13:29:23.857Z,26.37
2017-08-15T13:30:23.913Z,26.75
2017-08-15T13:32:18.425Z,26.84
2017-08-15T13:33:18.433Z,26.75
2017-08-15T13:35:12.913Z,26.95
2017-08-15T13:36:12.975Z,27.64
2017-08-15T13:38:07.466Z,26.98
2017-08-15T13:39:07.486Z,25.63
2017-08-15T13:41:01.954Z,23.44
2017-08-15T13:42:02.010Z,23.58
2017-08-15T13:43:56.498Z,19.85
2017-08-15T13:44:56.522Z,18.37
2017-08-15T13:46:51.010Z,19.02
2017-08-15T13:47:51.065Z,19.31
2017-08-15T13:49:45.522Z,19.70
2017-08-15T13:50:45.570Z,19.60
2017-08-15T13:52:39.084Z,20.09
2017-08-15T13:53:39.114Z,20.67
2017-08-15T13:55:33.594Z,20.36
2017-08-15T13:56:33.666Z,20.94
2017-08-15T13:58:28.138Z,21.80
2017-08-15T13:59:28.354Z,21.69
2017-08-15T14:01:22.666Z,23.45
2017-08-15T14:02:22.690Z,24.70
2017-08-15T14:04:17.210Z,25.48
2017-08-15T14:05:17.242Z,26.34
2017-08-15T14:07:11.691Z,26.54
2017-08-15T14:08:11.739Z,27.49
2017-08-15T14:10:06.243Z,29.06
2017-08-15T14:11:06.283Z,29.03
2017-08-15T14:13:00.747Z,29.22
2017-08-15T14:14:00.804Z,30.47
2017-08-15T14:15:55.300Z,31.70
2017-08-15T14:16:55.308Z,31.99
2017-08-15T14:18:49.779Z,32.48
2017-08-15T14:19:49.827Z,32.29
2017-08-15T14:21:44.348Z,33.64
2017-08-15T14:22:44.363Z,33.54
2017-08-15T14:24:37.451Z,32.96
2017-08-15T14:25:37.548Z,33.64
2017-08-15T14:27:31.995Z,34.11
2017-08-15T14:28:32.011Z,33.82
2017-08-15T14:30:26.548Z,34.11
2017-08-15T14:31:26.541Z,33.15
2017-08-15T14:33:20.995Z,33.82
2017-08-15T14:34:21.044Z,34.88
2017-08-15T14:36:15.540Z,34.66
2017-08-15T14:37:15.580Z,35.05
2017-08-15T14:39:10.100Z,35.15
2017-08-15T14:40:10.220Z,35.83
2017-08-15T14:42:04.564Z,35.25
2017-08-15T14:43:04.620Z,35.53
2017-08-15T14:44:58.124Z,35.94
2017-08-15T14:45:58.124Z,35.36
2017-08-15T14:47:52.604Z,35.44
2017-08-15T14:48:52.644Z,35.73
2017-08-15T14:50:47.188Z,35.83
2017-08-15T14:51:47.172Z,36.22
2017-08-15T14:53:41.644Z,36.61
2017-08-15T14:54:41.677Z,37.18
2017-08-15T14:56:36.164Z,37.08
2017-08-15T14:57:36.180Z,37.46
2017-08-15T14:59:29.693Z,37.95
2017-08-15T15:00:29.708Z,38.23
2017-08-15T15:02:24.197Z,38.32
2017-08-15T15:03:24.221Z,38.81
2017-08-15T15:05:18.708Z,38.24
2017-08-15T15:06:18.733Z,38.03
2017-08-15T15:08:13.230Z,38.03
2017-08-15T15:09:13.245Z,38.52
2017-08-15T15:11:07.717Z,39.28
2017-08-15T15:12:07.749Z,39.37
2017-08-15T15:14:02.277Z,39.86
2017-08-15T15:15:02.262Z,39.47
2017-08-15T15:16:55.726Z,40.15
2017-08-15T15:17:55.765Z,40.25
2017-08-15T15:19:50.253Z,40.37
2017-08-15T15:20:50.277Z,39.57
2017-08-15T15:22:44.742Z,39.98
2017-08-15T15:23:44.790Z,39.39
2017-08-15T15:25:39.294Z,40.27
2017-08-15T15:26:39.302Z,39.61
2017-08-15T15:28:33.782Z,40.09
2017-08-15T15:29:33.822Z,39.39
2017-08-15T15:31:28.310Z,40.34
2017-08-15T15:32:28.326Z,40.64
2017-08-15T15:34:21.799Z,40.83
2017-08-15T15:35:21.838Z,40.75
2017-08-15T15:37:16.334Z,42.00
2017-08-15T15:38:16.350Z,42.19
2017-08-15T15:40:09.862Z,43.05
2017-08-15T15:41:09.878Z,43.05
2017-08-15T15:43:04.358Z,43.24
2017-08-15T15:44:04.382Z,43.24
2017-08-15T15:45:58.871Z,43.05
2017-08-15T15:46:58.894Z,43.73
2017-08-15T15:48:53.374Z,44.38
2017-08-15T15:49:53.407Z,44.78
2017-08-15T15:51:47.878Z,45.14
2017-08-15T15:52:47.911Z,45.43
2017-08-15T15:54:42.392Z,46.21
2017-08-15T15:55:42.423Z,46.19
2017-08-15T15:57:36.920Z,47.28
2017-08-15T15:58:36.959Z,46.38
2017-08-15T16:00:31.407Z,46.09
2017-08-15T16:01:31.448Z,47.25
2017-08-15T16:03:25.927Z,47.83
2017-08-15T16:04:25.960Z,47.13
2017-08-15T16:06:19.456Z,48.10
2017-08-15T16:07:19.479Z,48.97
2017-08-15T16:09:14.783Z,48.85
2017-08-15T16:10:14.815Z,48.78
2017-08-15T16:12:08.312Z,49.75
2017-08-15T16:13:08.357Z,50.31
2017-08-15T16:15:02.928Z,50.21
2017-08-15T16:16:02.864Z,49.82
2017-08-15T16:17:58.457Z,50.50
2017-08-15T16:18:57.376Z,52.15
2017-08-15T16:20:51.824Z,51.67
2017-08-15T16:21:51.864Z,51.67
2017-08-15T16:23:46.408Z,52.44
2017-08-15T16:24:46.416Z,52.15
2017-08-15T16:26:39.880Z,53.58
2017-08-15T16:27:39.937Z,53.09
2017-08-15T16:29:34.464Z,53.87
2017-08-15T16:30:34.536Z,54.26
2017-08-15T16:32:28.920Z,54.06
2017-08-15T16:33:28.953Z,54.06
2017-08-15T16:35:23.441Z,54.84
2017-08-15T16:36:23.457Z,54.84
2017-08-15T16:38:17.953Z,54.26
2017-08-15T16:39:18.001Z,55.13
2017-08-15T16:41:12.458Z,53.77
2017-08-15T16:42:12.458Z,55.22
2017-08-15T16:44:06.962Z,56.20
2017-08-15T16:45:07.443Z,55.81
2017-08-15T16:47:06.029Z,57.33
2017-08-15T16:48:03.906Z,57.84
2017-08-15T16:50:06.201Z,56.26
2017-08-15T16:51:06.330Z,55.62
2017-08-15T16:52:52.153Z,57.07
2017-08-15T16:53:52.072Z,56.87
2017-08-15T16:55:47.787Z,57.75
2017-08-15T16:56:47.626Z,57.62
2017-08-15T16:58:50.025Z,58.20
2017-08-15T16:59:42.562Z,57.33
2017-08-15T17:01:36.667Z,58.11
2017-08-15T17:02:36.798Z,58.01
2017-08-15T17:04:31.550Z,58.01
2017-08-15T17:05:39.902Z,58.30
2017-08-15T17:07:24.754Z,59.17
2017-08-15T17:08:24.726Z,59.46
2017-08-15T17:10:19.238Z,59.75
2017-08-15T17:11:19.366Z,58.98
2017-08-15T17:13:13.751Z,57.81
2017-08-15T17:14:13.838Z,58.88
2017-08-15T17:16:08.318Z,59.56
2017-08-15T17:17:08.335Z,59.46
2017-08-15T17:19:02.823Z,58.01
2017-08-15T17:20:02.863Z,58.69
2017-08-15T17:21:57.302Z,59.46
2017-08-15T17:22:57.334Z,59.17
2017-08-15T17:24:50.781Z,59.27
2017-08-15T17:29:06.396Z,59.46
2017-08-15T17:30:07.812Z,59.56
2017-08-15T17:32:00.605Z,58.30
2017-08-15T17:33:00.029Z,58.98
2017-08-15T17:34:53.589Z,59.27
2017-08-15T17:35:53.421Z,60.24
2017-08-15T17:37:46.949Z,59.53
2017-08-15T17:38:47.004Z,59.43
2017-08-15T17:40:41.421Z,60.11
2017-08-15T17:41:50.094Z,60.21
2017-08-15T17:43:48.085Z,60.11
2017-08-15T17:44:48.006Z,60.11
2017-08-15T17:46:54.781Z,60.57
2017-08-15T17:47:54.097Z,60.17
2017-08-15T17:49:49.381Z,60.88
2017-08-15T17:50:49.405Z,61.24
2017-08-15T17:52:44.382Z,61.72
2017-08-15T17:53:43.919Z,62.79
2017-08-15T17:55:40.190Z,63.08
2017-08-15T17:56:39.918Z,62.88
2017-08-15T17:58:34.399Z,63.05
2017-08-15T17:59:34.438Z,65.37
2017-08-15T18:01:27.870Z,66.05
2017-08-15T18:02:27.902Z,66.50
2017-08-15T18:04:22.405Z,66.88
2017-08-15T18:05:22.449Z,67.75
2017-08-15T18:07:16.878Z,66.98
2017-08-15T18:08:16.934Z,67.56
2017-08-15T18:10:10.439Z,68.72
2017-08-15T18:11:10.479Z,68.04
2017-08-15T18:13:28.007Z,69.94
2017-08-15T18:14:28.265Z,69.84
2017-08-15T18:16:22.472Z,69.07
2017-08-15T18:17:22.519Z,70.14
2017-08-15T18:19:16.999Z,70.23
2017-08-15T18:20:17.023Z,70.72
2017-08-15T18:22:11.583Z,70.23
2017-08-15T18:23:11.527Z,70.81
2017-08-15T18:25:04.999Z,70.90
2017-08-15T18:26:05.075Z,70.52
2017-08-15T18:27:58.527Z,72.16
2017-08-15T18:28:58.591Z,71.58
2017-08-15T18:30:53.031Z,70.90
2017-08-15T18:31:53.086Z,71.30
2017-08-15T18:33:46.584Z,71.20
2017-08-15T18:34:46.591Z,71.20
2017-08-15T18:36:41.002Z,71.00
2017-08-15T18:37:41.058Z,71.48
2017-08-15T18:39:46.056Z,71.68
2017-08-15T18:40:46.064Z,72.45
2017-08-15T18:42:40.560Z,71.94
2017-08-15T18:43:40.601Z,72.03
2017-08-15T18:45:35.064Z,70.52
2017-08-15T18:46:35.088Z,69.90
2017-08-15T18:48:29.546Z,69.74
2017-08-15T18:49:29.624Z,70.14
2017-08-15T18:51:24.064Z,69.90
2017-08-15T18:52:24.112Z,69.36
2017-08-15T18:54:18.585Z,70.39
2017-08-15T18:55:18.613Z,70.39